Portada
METAR-TAF:

METAR-TAF

Aeropuertos :

Aeropuerto Internacional Rey Abdulaziz

Yida, Arabia Saudita

latitud: 21-42N, longitud: 039-11E, altitud: 15 m

Observación

El informe se hizo hace 38 minutos, a las 10:00 UTC
Viento 6 kt del norte-noreste
Temperatura 45°C
Humedad 11%
Presión 1005 hPa
Visibilidad: 8000 m
Cielo despejado
Polvo extendido

METAR: OEJN 231000Z 03006KT 8000 DU SKC 45/08 Q1005 NOSIG

Hora: 13:38 (10:38 UTC)

Pronóstico

El informe se hizo hace 5 horas y 38 minutos, a las 05:00 UTC
Pronóstico válido del 23 a las 06 UTC al 24 a las 12 UTC
Viento 12 kt del noroeste
Visibilidad 10 km o más
sin nubes por debajo de 1500 m y sin presencia de cumulonimbus.

TAF: OEJN 230500Z 2306/2412 32012KT CAVOK

Observaciones y pronósticos meteorológicos de más de 4000 aeropuertos (mensajes METAR y TAF).

Los puntos amarillos y rojos representan las estaciones disponibles.

Ponga el ratón en el punto deseado para ver el nombre de la estación.

Haga clic para ver las observaciones y los pronósticos meteorológicos.

Para cambiar el mapa : haga clic en los botones verdes con una cruz de color negro para hacer un zoom, en el botón verde con un guión para alejar o en las flechas verdes para mapas adyacentes.


METAR-TAF: